createdAt,value
2023-04-15T00:01:37.289Z,2.90
2023-04-15T00:04:04.823Z,2.88
2023-04-15T00:06:31.851Z,3.13
2023-04-15T00:08:58.664Z,3.72
2023-04-15T00:11:25.507Z,3.05
2023-04-15T00:13:52.108Z,3.33
2023-04-15T00:16:18.779Z,3.10
2023-04-15T00:18:46.044Z,3.28
2023-04-15T00:21:12.600Z,3.25
2023-04-15T00:23:39.245Z,2.72
2023-04-15T00:26:05.878Z,2.80
2023-04-15T00:28:32.433Z,3.08
2023-04-15T00:30:59.629Z,2.75
2023-04-15T00:33:26.435Z,3.00
2023-04-15T00:35:53.756Z,3.17
2023-04-15T00:38:20.301Z,3.10
2023-04-15T00:40:47.119Z,2.70
2023-04-15T00:43:13.928Z,2.72
2023-04-15T00:45:41.495Z,2.72
2023-04-15T00:48:09.546Z,3.22
2023-04-15T00:50:36.252Z,2.73
2023-04-15T00:53:02.926Z,2.70
2023-04-15T00:55:29.665Z,2.80
2023-04-15T00:57:57.697Z,3.47
2023-04-15T01:00:24.810Z,2.78
2023-04-15T01:02:51.605Z,2.47
2023-04-15T01:05:20.375Z,3.10
2023-04-15T01:07:48.230Z,3.40
2023-04-15T01:10:14.833Z,3.63
2023-04-15T01:12:42.307Z,3.30
2023-04-15T01:15:11.260Z,2.83
2023-04-15T01:17:38.334Z,2.95
2023-04-15T01:20:06.165Z,2.92
2023-04-15T01:22:34.456Z,2.70
2023-04-15T01:25:06.458Z,3.10
2023-04-15T01:27:35.368Z,3.10
2023-04-15T01:30:03.309Z,3.10
2023-04-15T01:32:31.322Z,3.25
2023-04-15T01:34:58.150Z,2.88
2023-04-15T01:37:25.328Z,2.88
2023-04-15T01:39:52.209Z,2.80
2023-04-15T01:42:19.175Z,3.20
2023-04-15T01:44:46.376Z,2.72
2023-04-15T01:47:13.149Z,3.72
2023-04-15T01:49:40.099Z,2.78
2023-04-15T01:52:07.109Z,2.40
2023-04-15T01:54:33.833Z,3.03
2023-04-15T01:57:01.303Z,3.15
2023-04-15T01:59:27.924Z,3.00
2023-04-15T02:01:55.219Z,3.22
2023-04-15T02:04:21.819Z,2.53
2023-04-15T02:06:49.311Z,2.50
2023-04-15T02:09:16.369Z,2.30
2023-04-15T02:11:43.098Z,3.00
2023-04-15T02:14:09.716Z,2.35
2023-04-15T02:16:36.734Z,2.80
2023-04-15T02:19:03.980Z,2.90
2023-04-15T02:21:30.788Z,2.70
2023-04-15T02:23:57.758Z,2.50
2023-04-15T02:26:32.465Z,3.00
2023-04-15T02:28:59.796Z,3.00
2023-04-15T02:31:26.647Z,3.10
2023-04-15T02:33:53.217Z,2.78
2023-04-15T02:36:21.308Z,2.95
2023-04-15T02:38:48.080Z,2.85
2023-04-15T02:41:14.895Z,2.73
2023-04-15T02:43:41.420Z,2.75
2023-04-15T02:46:08.447Z,3.40
2023-04-15T02:48:35.376Z,3.10
2023-04-15T02:51:15.524Z,3.00
2023-04-15T02:53:42.396Z,2.77
2023-04-15T02:59:03.562Z,2.85
2023-04-15T03:04:24.665Z,2.63
2023-04-15T03:06:51.712Z,2.60
2023-04-15T03:09:18.713Z,2.72
2023-04-15T03:12:17.343Z,2.80
2023-04-15T03:14:44.038Z,2.10
2023-04-15T03:17:10.510Z,2.38
2023-04-15T03:19:37.236Z,2.77
2023-04-15T03:22:03.824Z,2.60
2023-04-15T03:24:30.429Z,3.22
2023-04-15T03:26:57.955Z,3.35
2023-04-15T03:29:24.736Z,2.60
2023-04-15T03:31:52.765Z,2.50
2023-04-15T03:34:19.629Z,2.88
2023-04-15T03:36:46.922Z,3.05
2023-04-15T03:39:13.671Z,2.90
2023-04-15T03:41:40.691Z,3.15
2023-04-15T03:44:07.334Z,2.60
2023-04-15T03:46:33.941Z,3.55
2023-04-15T03:49:01.012Z,3.88
2023-04-15T03:51:28.499Z,2.30
2023-04-15T03:53:55.105Z,3.30
2023-04-15T03:56:21.668Z,3.30
2023-04-15T03:58:48.225Z,3.20
2023-04-15T04:01:15.041Z,3.30
2023-04-15T04:03:41.595Z,2.90
2023-04-15T04:06:08.498Z,2.90
2023-04-15T04:08:35.035Z,3.03
2023-04-15T04:11:02.016Z,3.55
2023-04-15T04:13:28.698Z,3.15
2023-04-15T04:15:55.553Z,4.25
2023-04-15T04:18:22.154Z,3.47
2023-04-15T04:20:48.995Z,3.30
2023-04-15T04:23:15.652Z,3.13
2023-04-15T04:25:42.512Z,3.42
2023-04-15T04:28:09.516Z,3.75
2023-04-15T04:30:36.166Z,4.13
2023-04-15T04:33:03.065Z,3.53
2023-04-15T04:35:29.662Z,4.00
2023-04-15T04:37:56.648Z,3.75
2023-04-15T04:40:23.385Z,3.33
2023-04-15T04:42:50.041Z,3.53
2023-04-15T04:45:16.656Z,2.90
2023-04-15T04:47:43.123Z,3.28
2023-04-15T04:50:10.343Z,3.97
2023-04-15T04:52:37.039Z,3.08
2023-04-15T04:55:03.763Z,4.18
2023-04-15T04:57:30.458Z,3.87
2023-04-15T04:59:57.648Z,3.45
2023-04-15T05:02:27.419Z,3.88
2023-04-15T05:04:56.184Z,3.67
2023-04-15T05:07:22.779Z,2.58
2023-04-15T05:09:49.562Z,3.27
2023-04-15T05:12:16.173Z,3.08
2023-04-15T05:14:43.030Z,2.83
2023-04-15T05:17:09.757Z,3.08
2023-04-15T05:19:36.257Z,3.70
2023-04-15T05:22:03.233Z,2.50
2023-04-15T05:24:29.851Z,4.25
2023-04-15T05:26:57.115Z,3.90
2023-04-15T05:29:23.752Z,3.85
2023-04-15T05:31:50.896Z,3.80
2023-04-15T05:34:17.635Z,3.20
2023-04-15T05:36:44.176Z,4.00
2023-04-15T05:39:10.745Z,3.95
2023-04-15T05:41:38.137Z,3.70
2023-04-15T05:44:05.147Z,3.72
2023-04-15T05:46:31.751Z,3.90
2023-04-15T05:48:58.416Z,4.35
2023-04-15T05:51:25.100Z,4.03
2023-04-15T05:53:51.601Z,3.45
2023-04-15T05:56:18.243Z,3.95
2023-04-15T05:58:44.844Z,3.83
2023-04-15T06:04:06.417Z,4.30
2023-04-15T06:06:33.395Z,4.47
2023-04-15T06:09:00.459Z,3.42
2023-04-15T06:12:04.730Z,4.10
2023-04-15T06:14:31.449Z,3.10
2023-04-15T06:16:58.428Z,2.50
2023-04-15T06:19:25.604Z,3.53
2023-04-15T06:21:52.143Z,3.33
2023-04-15T06:24:18.873Z,3.23
2023-04-15T06:26:45.652Z,3.58
2023-04-15T06:29:12.194Z,3.72
2023-04-15T06:31:38.713Z,3.83
2023-04-15T06:34:05.512Z,4.22
2023-04-15T06:36:32.781Z,3.73
2023-04-15T06:38:59.699Z,4.90
2023-04-15T06:44:20.817Z,4.78
2023-04-15T06:46:47.429Z,5.20
2023-04-15T06:49:13.870Z,5.13
2023-04-15T06:51:40.619Z,5.00
2023-04-15T06:54:07.478Z,4.40
2023-04-15T06:56:34.283Z,4.53
2023-04-15T06:59:00.980Z,4.13
2023-04-15T07:01:28.316Z,6.60
2023-04-15T07:03:55.178Z,4.13
2023-04-15T07:06:23.043Z,4.90
2023-04-15T07:08:49.756Z,5.65
2023-04-15T07:11:17.314Z,6.30
2023-04-15T07:13:44.076Z,4.57
2023-04-15T07:16:10.720Z,4.70
2023-04-15T07:18:37.348Z,5.20
2023-04-15T07:21:04.530Z,5.43
2023-04-15T07:23:31.497Z,5.68
2023-04-15T07:25:58.151Z,4.97
2023-04-15T07:28:24.903Z,4.65
2023-04-15T07:30:52.006Z,4.95
2023-04-15T07:33:18.848Z,5.15
2023-04-15T07:35:46.155Z,4.70
2023-04-15T07:38:13.770Z,4.20
2023-04-15T07:40:40.616Z,4.40
2023-04-15T07:43:07.314Z,4.65
2023-04-15T07:45:34.079Z,2.83
2023-04-15T07:48:01.849Z,3.33
2023-04-15T07:50:29.125Z,3.10
2023-04-15T07:52:56.065Z,2.85
2023-04-15T07:55:23.607Z,2.55
2023-04-15T07:57:50.790Z,2.88
2023-04-15T08:00:17.641Z,2.90
2023-04-15T08:02:44.628Z,2.57
2023-04-15T08:05:11.476Z,3.47
2023-04-15T08:07:38.833Z,2.30
2023-04-15T08:10:06.486Z,2.13
2023-04-15T08:12:33.274Z,2.97
2023-04-15T08:15:00.248Z,1.80
2023-04-15T08:17:27.015Z,2.67
2023-04-15T08:19:54.110Z,2.80
2023-04-15T08:22:22.367Z,2.50
2023-04-15T08:24:49.093Z,2.63
2023-04-15T08:27:15.684Z,1.80
2023-04-15T08:29:42.380Z,1.95
2023-04-15T08:32:09.640Z,1.85
2023-04-15T08:34:36.487Z,2.22
2023-04-15T08:37:03.288Z,1.52
2023-04-15T08:39:30.062Z,1.37
2023-04-15T08:42:05.789Z,2.38
2023-04-15T08:44:38.363Z,1.63
2023-04-15T08:47:08.452Z,1.90
2023-04-15T08:49:40.121Z,1.92
2023-04-15T08:52:07.530Z,1.30
2023-04-15T08:54:35.266Z,2.67
2023-04-15T08:57:02.630Z,3.10
2023-04-15T08:59:31.328Z,1.67
2023-04-15T09:02:00.226Z,1.80
2023-04-15T09:04:28.358Z,2.20
2023-04-15T09:06:55.055Z,2.28
2023-04-15T09:09:22.852Z,1.73
2023-04-15T09:11:51.501Z,2.65
2023-04-15T09:14:18.457Z,2.08
2023-04-15T09:17:04.059Z,2.00
2023-04-15T09:19:33.910Z,2.53
2023-04-15T09:22:01.391Z,2.70
2023-04-15T09:24:39.933Z,1.70
2023-04-15T09:27:07.341Z,1.98
2023-04-15T09:29:34.189Z,1.50
2023-04-15T09:32:14.191Z,1.83
2023-04-15T09:34:40.826Z,1.60
2023-04-15T09:37:08.182Z,1.70
2023-04-15T09:39:52.134Z,1.65
2023-04-15T09:42:24.769Z,1.60
2023-04-15T09:44:53.301Z,1.73
2023-04-15T09:47:32.402Z,2.22
2023-04-15T09:50:00.699Z,1.92
2023-04-15T09:52:28.803Z,1.92
2023-04-15T09:54:58.654Z,1.20
2023-04-15T09:57:25.707Z,1.67
2023-04-15T09:59:52.541Z,2.03
2023-04-15T10:02:22.842Z,1.40
2023-04-15T10:04:50.335Z,1.20
2023-04-15T10:07:20.480Z,2.33
2023-04-15T10:09:49.240Z,1.48
2023-04-15T10:12:20.349Z,1.45
2023-04-15T10:14:56.725Z,1.02
2023-04-15T10:17:25.306Z,1.15
2023-04-15T10:19:54.947Z,1.00
2023-04-15T10:22:23.167Z,1.30
2023-04-15T10:24:50.685Z,1.58
2023-04-15T10:27:18.900Z,1.40
2023-04-15T10:29:46.082Z,0.95
2023-04-15T10:32:14.007Z,1.03
2023-04-15T10:34:41.272Z,1.20
2023-04-15T10:37:11.234Z,1.50
2023-04-15T10:39:40.783Z,0.95
2023-04-15T10:42:14.290Z,1.70
2023-04-15T10:44:46.228Z,1.60
2023-04-15T10:47:15.618Z,1.23
2023-04-15T10:49:50.616Z,1.13
2023-04-15T10:52:18.745Z,1.20
2023-04-15T10:54:45.783Z,1.52
2023-04-15T10:57:23.197Z,0.93
2023-04-15T11:00:04.909Z,1.30
2023-04-15T11:03:00.204Z,1.33
2023-04-15T11:06:00.190Z,0.98
2023-04-15T11:08:57.003Z,1.10
2023-04-15T11:11:23.750Z,1.00
2023-04-15T11:13:52.457Z,0.98
2023-04-15T11:16:19.114Z,1.20
2023-04-15T11:18:55.901Z,0.88
2023-04-15T11:21:26.198Z,0.98
2023-04-15T11:23:53.051Z,1.07
2023-04-15T11:26:19.832Z,1.10
2023-04-15T11:28:46.806Z,1.13
2023-04-15T11:31:18.533Z,1.13
2023-04-15T11:34:02.983Z,0.75
2023-04-15T11:36:32.355Z,1.70
2023-04-15T11:38:59.971Z,1.02
2023-04-15T11:41:26.512Z,1.13
2023-04-15T11:43:53.577Z,0.90
2023-04-15T11:46:21.911Z,1.60
2023-04-15T11:48:48.816Z,1.10
2023-04-15T11:51:15.568Z,1.02
2023-04-15T11:53:47.318Z,1.15
2023-04-15T11:56:25.132Z,1.05
2023-04-15T11:58:59.875Z,1.48
2023-04-15T12:01:37.877Z,0.70
2023-04-15T12:04:13.024Z,1.33
2023-04-15T12:06:41.385Z,1.10
2023-04-15T12:09:14.447Z,1.00
2023-04-15T12:11:57.489Z,1.00
2023-04-15T12:14:34.868Z,0.50
2023-04-15T12:17:07.444Z,0.70
2023-04-15T12:19:41.969Z,1.05
2023-04-15T12:22:13.829Z,0.60
2023-04-15T12:24:44.037Z,1.05
2023-04-15T12:27:15.370Z,0.70
2023-04-15T12:29:43.334Z,0.47
2023-04-15T12:32:12.246Z,0.60
2023-04-15T12:34:42.624Z,1.15
2023-04-15T12:37:12.148Z,0.40
2023-04-15T12:39:41.651Z,0.47
2023-04-15T12:42:15.035Z,0.75
2023-04-15T12:47:33.212Z,0.80
2023-04-15T12:49:59.817Z,0.80
2023-04-15T12:55:26.325Z,0.90
2023-04-15T12:57:55.945Z,0.80
2023-04-15T13:03:39.517Z,0.50
2023-04-15T13:06:06.197Z,0.60
2023-04-15T13:08:33.138Z,0.60
2023-04-15T13:11:03.536Z,0.80
2023-04-15T13:13:32.401Z,1.05
2023-04-15T13:15:59.619Z,0.80
2023-04-15T13:18:26.714Z,0.70
2023-04-15T13:20:54.769Z,0.55
2023-04-15T13:23:21.500Z,0.70
2023-04-15T13:25:48.304Z,0.43
2023-04-15T13:28:18.275Z,0.47
2023-04-15T13:30:45.903Z,0.93
2023-04-15T13:33:12.563Z,0.60
2023-04-15T13:35:40.787Z,0.70
2023-04-15T13:38:07.539Z,0.65
2023-04-15T13:40:34.612Z,0.50
2023-04-15T13:43:02.091Z,1.07
2023-04-15T13:45:29.131Z,0.73
2023-04-15T13:47:57.751Z,0.60
2023-04-15T13:50:24.569Z,0.60
2023-04-15T13:52:51.276Z,0.50
2023-04-15T13:55:20.528Z,0.50
2023-04-15T13:57:48.820Z,0.40
2023-04-15T14:00:15.776Z,0.43
2023-04-15T14:02:42.832Z,0.70
2023-04-15T14:05:10.749Z,0.40
2023-04-15T14:07:44.176Z,0.30
2023-04-15T14:10:11.041Z,0.50
2023-04-15T14:12:37.724Z,0.40
2023-04-15T14:15:05.987Z,0.45
2023-04-15T14:17:33.903Z,0.47
2023-04-15T14:20:04.124Z,0.40
2023-04-15T14:22:31.213Z,0.40
2023-04-15T14:24:57.989Z,0.55
2023-04-15T14:27:24.757Z,0.50
2023-04-15T14:29:51.974Z,0.60
2023-04-15T14:32:19.109Z,0.80
2023-04-15T14:34:45.836Z,0.90
2023-04-15T14:37:15.072Z,0.70
2023-04-15T14:39:41.639Z,0.50
2023-04-15T14:42:08.431Z,0.70
2023-04-15T14:44:35.118Z,0.60
2023-04-15T14:47:01.898Z,0.88
2023-04-15T14:49:29.279Z,0.68
2023-04-15T14:51:56.221Z,0.63
2023-04-15T14:54:24.398Z,0.50
2023-04-15T14:59:45.470Z,0.68
2023-04-15T15:02:17.285Z,0.60
2023-04-15T15:04:53.296Z,0.40
2023-04-15T15:07:19.984Z,0.40
2023-04-15T15:09:46.846Z,0.63
2023-04-15T15:12:13.488Z,0.60
2023-04-15T15:14:40.080Z,0.85
2023-04-15T15:17:07.035Z,0.80
2023-04-15T15:19:33.951Z,0.60
2023-04-15T15:22:00.628Z,0.87
2023-04-15T15:24:27.207Z,0.60
2023-04-15T15:26:53.957Z,0.40
2023-04-15T15:29:20.815Z,0.75
2023-04-15T15:31:47.599Z,0.60
2023-04-15T15:34:14.452Z,0.87
2023-04-15T15:36:41.733Z,0.55
2023-04-15T15:39:08.985Z,0.90
2023-04-15T15:44:31.513Z,0.50
2023-04-15T15:46:59.267Z,0.73
2023-04-15T15:49:28.215Z,0.47
2023-04-15T15:51:56.076Z,0.55
2023-04-15T15:54:23.016Z,0.40
2023-04-15T15:56:50.299Z,0.75
2023-04-15T15:59:17.051Z,0.60
2023-04-15T16:01:44.288Z,0.75
2023-04-15T16:04:11.212Z,0.50
2023-04-15T16:06:37.897Z,0.60
2023-04-15T16:09:04.736Z,0.80
2023-04-15T16:11:31.660Z,0.83
2023-04-15T16:13:58.305Z,0.60
2023-04-15T16:16:25.057Z,0.70
2023-04-15T16:18:51.577Z,0.82
2023-04-15T16:21:18.363Z,0.60
2023-04-15T16:26:41.042Z,0.60
2023-04-15T16:29:08.145Z,0.50
2023-04-15T16:31:36.409Z,0.88
2023-04-15T16:34:03.984Z,0.90
2023-04-15T16:36:31.734Z,0.63
2023-04-15T16:38:58.330Z,0.70
2023-04-15T16:41:25.587Z,0.77
2023-04-15T16:43:52.173Z,0.60
2023-04-15T16:46:18.754Z,0.43
2023-04-15T16:48:48.724Z,0.50
2023-04-15T16:51:15.687Z,0.63
2023-04-15T16:53:43.236Z,0.77
2023-04-15T16:56:09.809Z,0.60
2023-04-15T16:58:36.584Z,0.73
2023-04-15T17:01:03.370Z,0.40
2023-04-15T17:03:31.290Z,0.70
2023-04-15T17:06:06.343Z,0.52
2023-04-15T17:08:33.228Z,0.45
2023-04-15T17:11:00.209Z,0.45
2023-04-15T17:13:26.892Z,0.97
2023-04-15T17:15:55.611Z,0.43
2023-04-15T17:18:24.131Z,0.98
2023-04-15T17:21:22.902Z,0.43
2023-04-15T17:23:50.585Z,0.73
2023-04-15T17:26:18.129Z,0.87
2023-04-15T17:28:45.310Z,0.60
2023-04-15T17:31:12.356Z,0.73
2023-04-15T17:34:00.328Z,0.73
2023-04-15T17:36:27.607Z,1.45
2023-04-15T17:38:57.118Z,0.70
2023-04-15T17:41:27.208Z,0.32
2023-04-15T17:43:53.842Z,0.40
2023-04-15T17:46:20.734Z,0.40
2023-04-15T17:48:47.797Z,0.70
2023-04-15T17:51:15.249Z,0.73
2023-04-15T17:53:41.890Z,0.50
2023-04-15T17:56:08.597Z,0.40
2023-04-15T17:58:35.338Z,0.52
2023-04-15T18:01:02.181Z,0.50
2023-04-15T18:03:28.948Z,0.70
2023-04-15T18:08:50.693Z,0.52
2023-04-15T18:11:17.522Z,0.80
2023-04-15T18:13:44.034Z,0.65
2023-04-15T18:16:17.786Z,0.50
2023-04-15T18:18:44.618Z,0.60
2023-04-15T18:21:13.539Z,0.50
2023-04-15T18:23:40.727Z,0.30
2023-04-15T18:26:07.320Z,0.30
2023-04-15T18:28:34.101Z,0.40
2023-04-15T18:33:56.701Z,0.40
2023-04-15T18:36:24.380Z,0.40
2023-04-15T18:38:51.151Z,0.40
2023-04-15T18:41:17.718Z,0.30
2023-04-15T18:43:44.657Z,0.68
2023-04-15T18:46:12.518Z,0.40
2023-04-15T18:48:39.177Z,0.30
2023-04-15T18:51:05.880Z,0.40
2023-04-15T18:53:32.714Z,0.50
2023-04-15T18:56:01.930Z,0.68
2023-04-15T18:58:28.959Z,0.32
2023-04-15T19:01:15.483Z,0.55
2023-04-15T19:03:42.208Z,0.43
2023-04-15T19:06:08.950Z,0.37
2023-04-15T19:08:35.712Z,0.80
2023-04-15T19:11:02.461Z,0.50
2023-04-15T19:13:29.398Z,0.50
2023-04-15T19:15:56.396Z,0.60
2023-04-15T19:18:23.429Z,0.30
2023-04-15T19:20:52.287Z,0.40
2023-04-15T19:23:19.056Z,1.02
2023-04-15T19:25:45.854Z,0.80
2023-04-15T19:28:12.495Z,0.52
2023-04-15T19:30:39.346Z,0.40
2023-04-15T19:33:06.273Z,0.30
2023-04-15T19:35:33.326Z,1.02
2023-04-15T19:37:59.931Z,0.50
2023-04-15T19:40:26.859Z,0.32
2023-04-15T19:42:53.606Z,0.40
2023-04-15T19:45:20.305Z,0.63
2023-04-15T19:47:47.368Z,0.40
2023-04-15T19:50:15.900Z,0.30
2023-04-15T19:52:42.799Z,0.85
2023-04-15T19:55:09.559Z,0.67
2023-04-15T19:57:36.615Z,0.80
2023-04-15T20:00:05.115Z,0.70
2023-04-15T20:02:32.136Z,0.63
2023-04-15T20:04:58.699Z,1.00
2023-04-15T20:07:27.663Z,1.07
2023-04-15T20:09:54.236Z,0.63
2023-04-15T20:12:50.053Z,0.73
2023-04-15T20:15:08.595Z,0.50
2023-04-15T20:17:36.672Z,0.80
2023-04-15T20:20:07.231Z,0.43
2023-04-15T20:22:34.549Z,1.13
2023-04-15T20:25:02.225Z,0.60
2023-04-15T20:27:29.070Z,0.45
2023-04-15T20:29:56.191Z,0.80
2023-04-15T20:32:24.331Z,0.47
2023-04-15T20:34:51.267Z,0.40
2023-04-15T20:37:18.016Z,1.98
2023-04-15T20:39:44.893Z,0.88
2023-04-15T20:42:11.840Z,0.88
2023-04-15T20:44:41.237Z,0.50
2023-04-15T20:47:08.601Z,0.70
2023-04-15T20:49:37.022Z,0.75
2023-04-15T20:52:05.142Z,0.68
2023-04-15T20:54:31.732Z,0.60
2023-04-15T20:56:58.469Z,0.37
2023-04-15T20:59:25.227Z,1.20
2023-04-15T21:01:52.042Z,1.35
2023-04-15T21:04:19.067Z,0.68
2023-04-15T21:06:45.990Z,1.02
2023-04-15T21:09:12.716Z,0.93
2023-04-15T21:11:57.573Z,0.70
2023-04-15T21:14:25.805Z,0.80
2023-04-15T21:16:52.477Z,0.82
2023-04-15T21:19:19.138Z,0.80
2023-04-15T21:21:46.352Z,0.70
2023-04-15T21:24:13.207Z,1.30
2023-04-15T21:26:39.850Z,0.90
2023-04-15T21:29:08.550Z,1.05
2023-04-15T21:31:36.275Z,1.05
2023-04-15T21:34:03.015Z,1.20
2023-04-15T21:36:29.781Z,0.90
2023-04-15T21:38:56.432Z,0.50
2023-04-15T21:41:23.070Z,0.90
2023-04-15T21:43:49.922Z,1.65
2023-04-15T21:46:22.036Z,1.40
2023-04-15T21:48:53.613Z,0.70
2023-04-15T21:51:20.666Z,1.42
2023-04-15T21:53:47.332Z,0.50
2023-04-15T21:59:08.253Z,0.60
2023-04-15T22:01:34.886Z,0.70
2023-04-15T22:04:01.552Z,0.70
2023-04-15T22:06:28.386Z,0.80
2023-04-15T22:08:57.724Z,1.40
2023-04-15T22:11:29.627Z,0.47
2023-04-15T22:13:57.705Z,0.80
2023-04-15T22:16:27.596Z,0.82
2023-04-15T22:18:55.013Z,0.40
2023-04-15T22:21:21.780Z,1.10
2023-04-15T22:23:49.126Z,0.70
2023-04-15T22:26:15.868Z,0.65
2023-04-15T22:28:42.513Z,1.10
2023-04-15T22:31:09.356Z,0.77
2023-04-15T22:33:36.221Z,1.58
2023-04-15T22:36:02.859Z,0.60
2023-04-15T22:38:29.669Z,0.77
2023-04-15T22:40:56.368Z,1.60
2023-04-15T22:43:22.988Z,1.13
2023-04-15T22:45:51.590Z,1.00
2023-04-15T22:48:18.977Z,0.77
2023-04-15T22:50:45.894Z,1.10
2023-04-15T22:53:12.716Z,1.65
2023-04-15T22:58:33.245Z,0.80
2023-04-15T23:00:59.997Z,0.90
2023-04-15T23:03:27.015Z,1.10
2023-04-15T23:05:54.865Z,2.20
2023-04-15T23:08:24.316Z,0.60
2023-04-15T23:10:52.014Z,1.02
2023-04-15T23:13:18.536Z,0.80
2023-04-15T23:15:45.117Z,0.80
2023-04-15T23:18:12.340Z,1.83
2023-04-15T23:20:38.979Z,1.23
2023-04-15T23:23:05.611Z,0.75
2023-04-15T23:25:32.244Z,1.27
2023-04-15T23:27:58.843Z,1.13
2023-04-15T23:30:25.413Z,0.95
2023-04-15T23:32:51.989Z,1.25
2023-04-15T23:35:18.655Z,1.20
2023-04-15T23:37:45.326Z,1.17
2023-04-15T23:40:12.853Z,1.20
2023-04-15T23:42:39.455Z,1.05
2023-04-15T23:45:06.584Z,1.35
2023-04-15T23:47:33.423Z,1.20
2023-04-15T23:50:00.011Z,1.33
2023-04-15T23:52:26.950Z,1.50
2023-04-15T23:54:53.610Z,1.40
2023-04-15T23:57:20.405Z,1.77
2023-04-15T23:59:47.005Z,1.45
